createdAt,value
2023-02-06T00:01:31.375Z,6.47
2023-02-06T00:03:59.431Z,6.00
2023-02-06T00:06:27.426Z,6.10
2023-02-06T00:08:55.467Z,6.10
2023-02-06T00:11:23.651Z,6.43
2023-02-06T00:13:51.991Z,5.03
2023-02-06T00:16:21.922Z,4.23
2023-02-06T00:18:52.610Z,4.00
2023-02-06T00:21:24.421Z,4.00
2023-02-06T00:23:53.933Z,4.60
2023-02-06T00:26:22.468Z,4.30
2023-02-06T00:28:50.909Z,3.80
2023-02-06T00:31:19.372Z,3.33
2023-02-06T00:33:47.509Z,3.57
2023-02-06T00:36:16.899Z,2.87
2023-02-06T00:38:45.354Z,4.00
2023-02-06T00:41:15.198Z,3.30
2023-02-06T00:43:43.513Z,3.17
2023-02-06T00:46:12.079Z,3.03
2023-02-06T00:48:40.228Z,2.70
2023-02-06T00:51:08.369Z,2.73
2023-02-06T00:53:39.865Z,3.07
2023-02-06T00:56:08.226Z,2.90
2023-02-06T00:58:36.282Z,3.43
2023-02-06T01:01:05.263Z,2.80
2023-02-06T01:03:33.312Z,3.40
2023-02-06T01:06:01.438Z,3.20
2023-02-06T01:08:29.449Z,3.00
2023-02-06T01:11:02.060Z,3.30
2023-02-06T01:13:30.087Z,3.33
2023-02-06T01:15:58.280Z,4.30
2023-02-06T01:18:26.333Z,4.07
2023-02-06T01:20:54.374Z,4.00
2023-02-06T01:23:23.238Z,3.73
2023-02-06T01:25:51.291Z,4.33
2023-02-06T01:28:20.708Z,3.73
2023-02-06T01:30:48.799Z,4.00
2023-02-06T01:33:16.821Z,4.20
2023-02-06T01:35:45.133Z,4.43
2023-02-06T01:38:13.160Z,3.80
2023-02-06T01:40:41.208Z,4.20
2023-02-06T01:43:17.676Z,3.90
2023-02-06T01:45:48.851Z,4.33
2023-02-06T01:48:20.945Z,3.90
2023-02-06T01:50:51.685Z,4.57
2023-02-06T01:53:21.981Z,3.37
2023-02-06T01:55:53.491Z,4.10
2023-02-06T01:58:29.063Z,3.93
2023-02-06T02:01:00.194Z,4.10
2023-02-06T02:03:29.435Z,3.93
2023-02-06T02:06:01.482Z,4.10
2023-02-06T02:08:34.678Z,4.20
2023-02-06T02:11:04.302Z,4.00
2023-02-06T02:13:34.231Z,3.73
2023-02-06T02:16:13.287Z,4.30
2023-02-06T02:19:05.475Z,4.43
2023-02-06T02:22:00.900Z,4.33
2023-02-06T02:24:55.040Z,3.73
2023-02-06T02:27:40.724Z,3.80
2023-02-06T02:30:53.310Z,4.70
2023-02-06T02:33:59.956Z,4.50
2023-02-06T02:36:34.984Z,4.27
2023-02-06T02:39:14.819Z,4.40
2023-02-06T02:41:49.586Z,4.50
2023-02-06T02:44:31.611Z,4.47
2023-02-06T02:47:05.976Z,4.80
2023-02-06T02:49:37.633Z,4.07
2023-02-06T02:52:07.296Z,4.80
2023-02-06T02:54:35.374Z,3.90
2023-02-06T02:57:08.985Z,4.33
2023-02-06T02:59:39.968Z,4.57
2023-02-06T03:02:13.674Z,4.57
2023-02-06T03:04:46.823Z,4.90
2023-02-06T03:07:24.865Z,4.90
2023-02-06T03:10:03.693Z,4.50
2023-02-06T03:12:39.824Z,4.13
2023-02-06T03:15:18.153Z,4.07
2023-02-06T03:17:52.491Z,4.60
2023-02-06T03:20:21.405Z,5.00
2023-02-06T03:22:52.757Z,4.10
2023-02-06T03:25:29.090Z,4.30
2023-02-06T03:27:59.377Z,4.87
2023-02-06T03:30:30.943Z,4.50
2023-02-06T03:33:04.386Z,4.77
2023-02-06T03:35:36.251Z,4.30
2023-02-06T03:38:08.017Z,4.50
2023-02-06T03:40:36.625Z,5.13
2023-02-06T03:43:06.605Z,4.80
2023-02-06T03:45:39.613Z,3.60
2023-02-06T03:48:11.015Z,4.10
2023-02-06T03:50:43.551Z,4.80
2023-02-06T03:53:14.142Z,4.23
2023-02-06T03:55:43.918Z,4.73
2023-02-06T03:58:14.861Z,4.70
2023-02-06T04:00:44.825Z,5.13
2023-02-06T04:03:14.774Z,4.00
2023-02-06T04:05:42.950Z,4.40
2023-02-06T04:08:12.330Z,5.10
2023-02-06T04:10:40.373Z,4.23
2023-02-06T04:13:08.464Z,4.57
2023-02-06T04:15:36.900Z,5.03
2023-02-06T04:18:06.109Z,5.20
2023-02-06T04:20:34.461Z,5.30
2023-02-06T04:23:02.454Z,4.57
2023-02-06T04:25:31.830Z,4.83
2023-02-06T04:28:00.133Z,5.10
2023-02-06T04:30:28.377Z,5.13
2023-02-06T04:32:56.389Z,5.10
2023-02-06T04:35:24.457Z,4.43
2023-02-06T04:37:52.504Z,5.30
2023-02-06T04:40:20.634Z,5.00
2023-02-06T04:42:50.000Z,4.87
2023-02-06T04:45:18.143Z,6.10
2023-02-06T04:47:49.342Z,4.90
2023-02-06T04:50:17.768Z,4.83
2023-02-06T04:52:45.827Z,4.50
2023-02-06T04:55:14.196Z,5.07
2023-02-06T04:57:42.775Z,4.83
2023-02-06T05:00:14.543Z,2.90
2023-02-06T05:02:42.674Z,3.07
2023-02-06T05:05:11.496Z,2.87
2023-02-06T05:07:39.534Z,2.67
2023-02-06T05:10:08.950Z,2.50
2023-02-06T05:12:37.281Z,2.53
2023-02-06T05:15:06.031Z,2.40
2023-02-06T05:17:35.993Z,2.37
2023-02-06T05:20:04.720Z,2.27
2023-02-06T05:22:32.819Z,2.50
2023-02-06T05:25:00.943Z,2.40
2023-02-06T05:27:29.012Z,2.20
2023-02-06T05:29:57.016Z,2.00
2023-02-06T05:32:25.141Z,2.70
2023-02-06T05:34:54.494Z,2.07
2023-02-06T05:37:22.523Z,2.10
2023-02-06T05:39:50.506Z,1.90
2023-02-06T05:42:18.568Z,2.10
2023-02-06T05:44:46.561Z,1.93
2023-02-06T05:47:14.586Z,2.30
2023-02-06T05:49:43.926Z,1.90
2023-02-06T05:52:13.287Z,2.30
2023-02-06T05:54:41.430Z,2.43
2023-02-06T05:57:09.486Z,1.87
2023-02-06T05:59:37.579Z,1.97
2023-02-06T06:02:06.273Z,1.43
2023-02-06T06:04:34.324Z,1.70
2023-02-06T06:07:02.477Z,1.63
2023-02-06T06:09:31.806Z,1.60
2023-02-06T06:11:59.828Z,1.73
2023-02-06T06:14:28.244Z,1.60
2023-02-06T06:16:56.678Z,1.60
2023-02-06T06:19:24.712Z,1.43
2023-02-06T06:21:52.736Z,1.40
2023-02-06T06:24:20.754Z,2.00
2023-02-06T06:26:50.172Z,1.97
2023-02-06T06:29:18.186Z,1.30
2023-02-06T06:31:46.266Z,1.47
2023-02-06T06:34:14.395Z,1.80
2023-02-06T06:36:42.542Z,1.53
2023-02-06T06:39:10.909Z,1.23
2023-02-06T06:41:39.266Z,1.20
2023-02-06T06:44:08.625Z,2.63
2023-02-06T06:46:36.628Z,1.33
2023-02-06T06:49:05.313Z,1.23
2023-02-06T06:51:33.316Z,1.00
2023-02-06T06:54:01.869Z,1.50
2023-02-06T06:56:30.096Z,3.20
2023-02-06T06:58:58.107Z,2.47
2023-02-06T07:01:27.607Z,2.20
2023-02-06T07:03:55.675Z,1.70
2023-02-06T07:06:23.856Z,1.80
2023-02-06T07:08:52.025Z,1.60
2023-02-06T07:11:20.117Z,1.80
2023-02-06T07:13:48.408Z,1.93
2023-02-06T07:16:16.475Z,1.83
2023-02-06T07:18:45.929Z,1.93
2023-02-06T07:21:15.804Z,2.30
2023-02-06T07:23:43.802Z,1.10
2023-02-06T07:26:12.199Z,1.43
2023-02-06T07:28:40.418Z,2.50
2023-02-06T07:31:09.928Z,1.70
2023-02-06T07:33:38.005Z,1.47
2023-02-06T07:36:11.841Z,1.33
2023-02-06T07:38:40.325Z,1.10
2023-02-06T07:41:09.270Z,1.27
2023-02-06T07:43:39.148Z,0.87
2023-02-06T07:46:07.490Z,1.10
2023-02-06T07:48:35.751Z,1.40
2023-02-06T07:51:09.749Z,1.40
2023-02-06T07:53:38.613Z,1.10
2023-02-06T07:56:12.158Z,1.43
2023-02-06T07:58:40.207Z,1.20
2023-02-06T08:01:08.790Z,1.23
2023-02-06T08:03:37.457Z,1.33
2023-02-06T08:06:11.330Z,1.30
2023-02-06T08:08:39.872Z,1.97
2023-02-06T08:11:09.222Z,1.90
2023-02-06T08:13:37.537Z,1.50
2023-02-06T08:16:07.747Z,1.23
2023-02-06T08:18:36.882Z,1.30
2023-02-06T08:21:06.855Z,1.33
2023-02-06T08:23:36.456Z,1.60
2023-02-06T08:26:06.228Z,1.40
2023-02-06T08:28:35.147Z,1.60
2023-02-06T08:31:09.860Z,1.50
2023-02-06T08:33:38.214Z,1.37
2023-02-06T08:36:07.394Z,1.27
2023-02-06T08:38:37.171Z,1.93
2023-02-06T08:41:05.598Z,1.20
2023-02-06T08:43:33.624Z,1.53
2023-02-06T08:46:01.706Z,1.50
2023-02-06T08:48:29.724Z,1.00
2023-02-06T08:51:05.330Z,1.67
2023-02-06T08:53:33.858Z,1.90
2023-02-06T08:56:05.308Z,1.93
2023-02-06T08:58:34.140Z,1.37
2023-02-06T09:01:07.365Z,1.23
2023-02-06T09:03:35.641Z,1.30
2023-02-06T09:06:09.688Z,1.20
2023-02-06T09:08:38.639Z,1.40
2023-02-06T09:11:08.885Z,1.80
2023-02-06T09:13:37.669Z,1.90
2023-02-06T09:16:07.069Z,1.77
2023-02-06T09:18:35.702Z,2.00
2023-02-06T09:21:05.972Z,2.13
2023-02-06T09:23:34.313Z,1.40
2023-02-06T09:26:02.354Z,1.50
2023-02-06T09:28:32.008Z,1.80
2023-02-06T09:31:00.194Z,1.90
2023-02-06T09:33:28.356Z,2.03
2023-02-06T09:36:03.979Z,2.47
2023-02-06T09:38:32.079Z,1.63
2023-02-06T09:41:01.641Z,1.93
2023-02-06T09:43:33.003Z,1.87
2023-02-06T09:46:03.450Z,2.00
2023-02-06T09:48:34.733Z,1.90
2023-02-06T09:51:14.830Z,1.77
2023-02-06T09:53:50.499Z,2.43
2023-02-06T09:56:27.919Z,1.67
2023-02-06T09:59:04.378Z,2.13
2023-02-06T10:01:38.746Z,2.70
2023-02-06T10:04:29.029Z,2.40
2023-02-06T10:07:04.475Z,2.23
2023-02-06T10:09:39.956Z,2.70
2023-02-06T10:12:13.948Z,2.87
2023-02-06T10:14:49.631Z,2.30
2023-02-06T10:17:22.164Z,3.40
2023-02-06T10:19:56.325Z,3.57
2023-02-06T10:22:31.602Z,2.53
2023-02-06T10:25:17.430Z,2.17
2023-02-06T10:27:48.518Z,2.90
2023-02-06T10:30:20.533Z,2.90
2023-02-06T10:32:57.649Z,3.30
2023-02-06T10:35:41.782Z,1.90
2023-02-06T10:38:23.479Z,2.20
2023-02-06T10:40:56.716Z,2.70
2023-02-06T10:43:35.820Z,2.77
2023-02-06T10:46:19.806Z,2.40
2023-02-06T10:48:57.977Z,2.27
2023-02-06T10:51:29.084Z,2.13
2023-02-06T10:54:00.883Z,2.40
2023-02-06T10:56:31.130Z,2.60
2023-02-06T10:59:02.084Z,2.50
2023-02-06T11:01:36.723Z,2.70
2023-02-06T11:04:11.164Z,3.17
2023-02-06T11:06:42.426Z,2.27
2023-02-06T11:09:10.885Z,2.80
2023-02-06T11:11:40.997Z,2.40
2023-02-06T11:14:16.672Z,1.80
2023-02-06T11:16:47.108Z,1.90
2023-02-06T11:19:19.023Z,2.43
2023-02-06T11:21:56.776Z,1.90
2023-02-06T11:24:25.826Z,2.30
2023-02-06T11:26:56.602Z,2.10
2023-02-06T11:29:28.213Z,1.90
2023-02-06T11:32:00.143Z,2.57
2023-02-06T11:34:33.324Z,2.20
2023-02-06T11:37:03.663Z,2.53
2023-02-06T11:39:33.770Z,2.10
2023-02-06T11:42:04.838Z,2.30
2023-02-06T11:44:38.085Z,2.47
2023-02-06T11:47:31.184Z,2.50
2023-02-06T11:50:21.644Z,2.30
2023-02-06T11:52:52.306Z,3.17
2023-02-06T11:55:30.797Z,2.27
2023-02-06T11:58:11.618Z,1.80
2023-02-06T12:00:40.552Z,2.17
2023-02-06T12:03:30.488Z,1.93
2023-02-06T12:06:04.533Z,2.03
2023-02-06T12:08:41.313Z,1.90
2023-02-06T12:11:17.090Z,1.93
2023-02-06T12:13:50.089Z,2.73
2023-02-06T12:16:18.722Z,2.87
2023-02-06T12:18:50.524Z,1.97
2023-02-06T12:21:26.898Z,2.20
2023-02-06T12:23:57.504Z,1.50
2023-02-06T12:26:30.326Z,2.67
2023-02-06T12:29:03.180Z,1.60
2023-02-06T12:31:39.710Z,1.80
2023-02-06T12:34:15.984Z,2.27
2023-02-06T12:36:54.945Z,2.33
2023-02-06T12:39:24.311Z,1.57
2023-02-06T12:42:06.203Z,1.90
2023-02-06T12:44:38.071Z,1.60
2023-02-06T12:47:14.921Z,2.30
2023-02-06T12:49:53.434Z,2.20
2023-02-06T12:52:25.862Z,2.00
2023-02-06T12:55:07.341Z,1.87
2023-02-06T12:57:38.652Z,2.20
2023-02-06T13:00:31.110Z,1.50
2023-02-06T13:03:30.682Z,1.70
2023-02-06T13:06:11.082Z,1.33
2023-02-06T13:08:47.401Z,1.50
2023-02-06T13:11:29.583Z,2.07
2023-02-06T13:14:05.899Z,1.70
2023-02-06T13:16:46.563Z,2.07
2023-02-06T13:19:27.424Z,1.70
2023-02-06T13:22:23.096Z,1.63
2023-02-06T13:24:52.252Z,1.20
2023-02-06T13:27:25.235Z,1.50
2023-02-06T13:29:55.082Z,1.47
2023-02-06T13:32:45.181Z,1.00
2023-02-06T13:35:22.326Z,1.47
2023-02-06T13:37:51.892Z,1.50
2023-02-06T13:40:32.046Z,1.33
2023-02-06T13:43:03.577Z,1.40
2023-02-06T13:45:38.518Z,1.07
2023-02-06T13:48:25.609Z,1.30
2023-02-06T13:51:32.743Z,1.17
2023-02-06T13:54:27.693Z,1.30
2023-02-06T13:57:21.068Z,1.30
2023-02-06T13:59:51.807Z,1.60
2023-02-06T14:02:28.566Z,1.30
2023-02-06T14:04:57.660Z,1.80
2023-02-06T14:07:49.389Z,1.80
2023-02-06T14:10:59.082Z,1.43
2023-02-06T14:13:41.680Z,1.40
2023-02-06T14:16:22.661Z,1.53
2023-02-06T14:18:57.158Z,1.40
2023-02-06T14:21:45.656Z,1.37
2023-02-06T14:24:36.754Z,1.43
2023-02-06T14:27:23.585Z,1.50
2023-02-06T14:30:01.256Z,1.30
2023-02-06T14:32:39.645Z,1.10
2023-02-06T14:35:25.031Z,1.40
2023-02-06T14:38:24.048Z,1.70
2023-02-06T14:40:55.529Z,1.10
2023-02-06T14:43:27.042Z,1.40
2023-02-06T14:46:07.049Z,1.33
2023-02-06T14:48:40.785Z,1.80
2023-02-06T14:51:21.696Z,1.63
2023-02-06T14:53:53.805Z,1.17
2023-02-06T14:56:27.935Z,2.10
2023-02-06T14:58:56.131Z,1.60
2023-02-06T15:01:27.729Z,3.37
2023-02-06T15:04:10.566Z,1.37
2023-02-06T15:06:41.818Z,1.30
2023-02-06T15:09:24.955Z,1.20
2023-02-06T15:11:54.314Z,1.53
2023-02-06T15:14:24.414Z,1.17
2023-02-06T15:16:56.710Z,1.50
2023-02-06T15:19:27.357Z,1.87
2023-02-06T15:22:02.097Z,1.60
2023-02-06T15:24:54.915Z,2.30
2023-02-06T15:27:29.619Z,1.53
2023-02-06T15:29:58.851Z,1.40
2023-02-06T15:32:30.656Z,1.40
2023-02-06T15:34:59.707Z,1.73
2023-02-06T15:37:32.042Z,1.23
2023-02-06T15:40:06.768Z,1.40
2023-02-06T15:42:34.963Z,1.60
2023-02-06T15:45:03.166Z,1.30
2023-02-06T15:47:31.927Z,1.40
2023-02-06T15:50:00.507Z,1.10
2023-02-06T15:52:42.624Z,1.40
2023-02-06T15:55:27.172Z,1.50
2023-02-06T15:57:56.775Z,1.40
2023-02-06T16:00:28.363Z,1.30
2023-02-06T16:03:06.816Z,1.40
2023-02-06T16:05:38.321Z,0.97
2023-02-06T16:08:12.661Z,1.20
2023-02-06T16:10:41.749Z,1.40
2023-02-06T16:13:12.576Z,1.10
2023-02-06T16:15:42.817Z,1.00
2023-02-06T16:18:26.968Z,1.00
2023-02-06T16:21:13.181Z,1.10
2023-02-06T16:23:51.085Z,1.27
2023-02-06T16:26:21.841Z,1.67
2023-02-06T16:29:00.251Z,1.80
2023-02-06T16:31:30.882Z,1.83
2023-02-06T16:34:03.047Z,1.10
2023-02-06T16:36:34.802Z,1.60
2023-02-06T16:39:04.892Z,1.03
2023-02-06T16:41:34.671Z,2.30
2023-02-06T16:44:04.108Z,1.40
2023-02-06T16:46:32.190Z,1.30
2023-02-06T16:49:00.905Z,1.60
2023-02-06T16:51:30.896Z,1.60
2023-02-06T16:53:59.516Z,1.70
2023-02-06T16:56:28.921Z,1.20
2023-02-06T16:58:56.929Z,1.50
2023-02-06T17:01:28.340Z,1.50
2023-02-06T17:03:56.969Z,1.40
2023-02-06T17:06:27.040Z,1.50
2023-02-06T17:08:58.323Z,1.60
2023-02-06T17:11:27.968Z,1.27
2023-02-06T17:13:56.080Z,1.50
2023-02-06T17:16:25.944Z,1.50
2023-02-06T17:18:54.635Z,1.40
2023-02-06T17:21:24.822Z,1.33
2023-02-06T17:23:52.923Z,1.20
2023-02-06T17:26:23.651Z,1.60
2023-02-06T17:28:53.344Z,1.60
2023-02-06T17:31:21.764Z,1.10
2023-02-06T17:33:49.872Z,2.03
2023-02-06T17:36:21.885Z,1.17
2023-02-06T17:38:50.112Z,1.70
2023-02-06T17:41:18.136Z,1.50
2023-02-06T17:43:46.135Z,1.97
2023-02-06T17:46:15.603Z,1.17
2023-02-06T17:48:44.524Z,1.30
2023-02-06T17:51:12.851Z,1.60
2023-02-06T17:53:40.995Z,1.43
2023-02-06T17:56:12.740Z,1.43
2023-02-06T17:58:40.875Z,1.17
2023-02-06T18:01:12.112Z,2.40
2023-02-06T18:03:43.118Z,1.70
2023-02-06T18:06:12.600Z,1.77
2023-02-06T18:08:41.204Z,1.40
2023-02-06T18:11:11.462Z,1.83
2023-02-06T18:13:40.173Z,2.20
2023-02-06T18:16:13.693Z,1.33
2023-02-06T18:18:43.203Z,1.57
2023-02-06T18:21:11.452Z,1.53
2023-02-06T18:23:39.742Z,1.80
2023-02-06T18:26:09.776Z,1.80
2023-02-06T18:28:39.400Z,2.07
2023-02-06T18:31:23.993Z,2.23
2023-02-06T18:33:54.063Z,1.80
2023-02-06T18:36:22.937Z,2.10
2023-02-06T18:38:51.218Z,2.10
2023-02-06T18:41:36.848Z,1.93
2023-02-06T18:44:08.251Z,2.30
2023-02-06T18:46:37.842Z,1.70
2023-02-06T18:49:07.532Z,1.77
2023-02-06T18:51:35.826Z,2.63
2023-02-06T18:54:04.184Z,2.00
2023-02-06T18:56:32.386Z,1.70
2023-02-06T18:59:00.611Z,2.30
2023-02-06T19:01:28.676Z,3.33
2023-02-06T19:03:57.879Z,2.60
2023-02-06T19:06:29.825Z,1.87
2023-02-06T19:08:58.676Z,3.27
2023-02-06T19:11:27.192Z,2.10
2023-02-06T19:13:55.885Z,1.97
2023-02-06T19:16:26.330Z,1.70
2023-02-06T19:18:54.682Z,2.30
2023-02-06T19:21:24.772Z,1.80
2023-02-06T19:24:00.694Z,1.97
2023-02-06T19:26:29.575Z,2.63
2023-02-06T19:28:58.130Z,2.00
2023-02-06T19:31:26.398Z,1.87
2023-02-06T19:33:56.622Z,2.00
2023-02-06T19:36:26.275Z,2.27
2023-02-06T19:38:57.780Z,2.30
2023-02-06T19:41:27.960Z,2.60
2023-02-06T19:43:56.848Z,1.97
2023-02-06T19:46:26.599Z,2.10
2023-02-06T19:48:55.448Z,1.97
2023-02-06T19:51:25.265Z,2.40
2023-02-06T19:53:55.272Z,2.37
2023-02-06T19:56:26.446Z,2.67
2023-02-06T19:58:55.877Z,2.10
2023-02-06T20:01:24.437Z,2.20
2023-02-06T20:03:53.053Z,2.70
2023-02-06T20:06:21.183Z,2.70
2023-02-06T20:08:49.338Z,2.90
2023-02-06T20:11:19.091Z,3.07
2023-02-06T20:13:51.904Z,3.20
2023-02-06T20:16:21.745Z,3.43
2023-02-06T20:18:49.967Z,3.00
2023-02-06T20:21:24.111Z,2.87
2023-02-06T20:23:52.168Z,3.37
2023-02-06T20:26:21.419Z,3.20
2023-02-06T20:28:51.115Z,3.03
2023-02-06T20:31:20.077Z,3.17
2023-02-06T20:33:48.241Z,2.40
2023-02-06T20:36:18.522Z,2.33
2023-02-06T20:38:49.182Z,2.87
2023-02-06T20:41:18.217Z,2.97
2023-02-06T20:43:48.056Z,2.50
2023-02-06T20:46:17.980Z,2.57
2023-02-06T20:48:47.714Z,3.30
2023-02-06T20:51:15.817Z,2.30
2023-02-06T20:53:43.842Z,2.60
2023-02-06T20:56:14.524Z,2.50
2023-02-06T20:58:43.359Z,3.03
2023-02-06T21:01:17.895Z,3.00
2023-02-06T21:03:47.196Z,4.67
2023-02-06T21:06:15.785Z,2.40
2023-02-06T21:08:45.898Z,2.10
2023-02-06T21:11:14.304Z,2.53
2023-02-06T21:13:42.356Z,2.50
2023-02-06T21:16:13.657Z,2.03
2023-02-06T21:18:43.093Z,1.77
2023-02-06T21:21:13.495Z,1.90
2023-02-06T21:23:43.828Z,1.80
2023-02-06T21:26:13.700Z,1.77
2023-02-06T21:28:42.299Z,1.60
2023-02-06T21:31:16.772Z,1.90
2023-02-06T21:33:49.041Z,1.57
2023-02-06T21:36:17.507Z,1.93
2023-02-06T21:38:45.611Z,1.27
2023-02-06T21:41:15.934Z,1.90
2023-02-06T21:43:44.135Z,1.80
2023-02-06T21:46:13.079Z,1.43
2023-02-06T21:48:41.871Z,2.10
2023-02-06T21:51:13.833Z,1.53
2023-02-06T21:53:42.137Z,1.50
2023-02-06T21:56:12.835Z,1.40
2023-02-06T21:58:40.868Z,1.50
2023-02-06T22:01:09.190Z,1.63
2023-02-06T22:03:37.249Z,1.57
2023-02-06T22:06:08.553Z,1.63
2023-02-06T22:08:38.601Z,1.23
2023-02-06T22:11:13.397Z,1.40
2023-02-06T22:13:42.668Z,1.20
2023-02-06T22:16:12.311Z,1.10
2023-02-06T22:18:41.381Z,1.33
2023-02-06T22:21:12.154Z,1.53
2023-02-06T22:23:42.513Z,1.40
2023-02-06T22:26:12.258Z,1.30
2023-02-06T22:28:40.903Z,1.53
2023-02-06T22:31:10.931Z,1.40
2023-02-06T22:33:39.648Z,1.60
2023-02-06T22:36:09.251Z,1.40
2023-02-06T22:38:37.396Z,1.10
2023-02-06T22:41:08.870Z,1.17
2023-02-06T22:43:38.453Z,1.63
2023-02-06T22:46:08.667Z,1.67
2023-02-06T22:48:37.622Z,1.70
2023-02-06T22:51:06.898Z,1.77
2023-02-06T22:53:36.359Z,1.50
2023-02-06T22:56:25.328Z,1.50
2023-02-06T22:58:54.376Z,1.50
2023-02-06T23:01:23.925Z,1.90
2023-02-06T23:03:53.162Z,1.10
2023-02-06T23:06:22.017Z,1.10
2023-02-06T23:08:50.330Z,1.53
2023-02-06T23:11:19.793Z,1.50
2023-02-06T23:13:53.202Z,0.83
2023-02-06T23:16:21.795Z,0.90
2023-02-06T23:18:50.644Z,1.13
2023-02-06T23:21:20.718Z,1.00
2023-02-06T23:23:49.104Z,0.97
2023-02-06T23:26:21.017Z,1.00
2023-02-06T23:28:49.065Z,0.90
2023-02-06T23:31:17.524Z,1.03
2023-02-06T23:33:45.827Z,1.00
2023-02-06T23:36:16.309Z,1.40
2023-02-06T23:38:45.347Z,1.13
2023-02-06T23:41:15.734Z,1.10
2023-02-06T23:43:45.569Z,1.20
2023-02-06T23:46:15.222Z,1.00
2023-02-06T23:48:43.254Z,0.80
2023-02-06T23:51:11.487Z,1.13
2023-02-06T23:53:39.666Z,0.80
2023-02-06T23:56:11.543Z,0.90
2023-02-06T23:58:39.708Z,1.10
